Pittsburgh, Pennsylvania
Traffic Map
Current Weather Conditions
Pittsburgh, Pennsylvania
Clear
Clear
17°
Feels Like: 17°
Wind Chill: 17° Ceiling: Unl
Heat Index: 17° Visibility: 10mi
Dew Point: Wind: 14mph
Humidity: 58% Direction: 230° (SW)
Pressure: 29.75in Gusts: 23mph
Raw Report DataKAGC 252253Z 23012G20KT 10SM CLR 17/09 A2975 RMK AO2 SLP078 T01720089
Traffic Incident Summary
Active as of:
Severity:
Category:
InformationThere was an issue retrieving the traffic information for this location. Please try a different location or try again shortly.
Advertisements
Track Severe Weather on mobile